Startpagina
METAR-TAF:

METAR-TAF

Vliegvelden :

Shepherd Bay, Nunavut, Canada

breedte: 68-49N, lengte: 093-26W, hoogte: 51 m

Actueel weer

Dit bericht is 38 minuten geleden gemaakt, om 10:00 UTC
Wind 7 kt uit het oostzuidoosten met uitschieters tot 24 kt, variërend tussen het oosten en het zuidzuidoosten
Temperatuur -19°C
Vochtigheid 49%
Druk 1038 hPa

METAR: CYUS 051000Z AUTO 12007G24KT 090V150 ////SM //// NCD M19/M27 A3065

Tijdstip: 04:38 (10:38 UTC)


TAF: ontbreekt

Waarnemingen en weersverwachtingen van meer dan 4000 vliegvelden (METAR en TAF).

De beschikbare stations zijn de gele en rode punten op de kaart.

Ga met uw muis naar het station om de naam te zien.

Klik dan om waarnemingen en weersverwachtingen te zien.

kaart wijzigen: klik op de groene knoppen met een zwart kruis om in te zoomen, op de groene knop met een streepje om uit te zoomen of op de groene pijlen voor aangrenzende kaarten.


METAR-TAF: